sensor_id;sensor_type;location;lat;lon;timestamp;temperature;humidity
5352;DHT22;2698;51.454;6.736;2023-01-13T00:00:31;10.00;99.90
5352;DHT22;2698;51.454;6.736;2023-01-13T00:02:59;10.00;99.90
5352;DHT22;2698;51.454;6.736;2023-01-13T00:05:26;10.10;99.90
5352;DHT22;2698;51.454;6.736;2023-01-13T00:07:53;9.90;99.90
5352;DHT22;2698;51.454;6.736;2023-01-13T00:10:19;9.90;99.90
5352;DHT22;2698;51.454;6.736;2023-01-13T00:12:46;9.80;99.90
5352;DHT22;2698;51.454;6.736;2023-01-13T00:15:13;9.80;99.90
5352;DHT22;2698;51.454;6.736;2023-01-13T00:17:40;9.80;99.90
5352;DHT22;2698;51.454;6.736;2023-01-13T00:20:09;9.70;99.90
5352;DHT22;2698;51.454;6.736;2023-01-13T00:22:36;9.80;99.90
5352;DHT22;2698;51.454;6.736;2023-01-13T00:25:04;9.80;99.90
5352;DHT22;2698;51.454;6.736;2023-01-13T00:27:31;9.80;99.90
5352;DHT22;2698;51.454;6.736;2023-01-13T00:29:58;9.80;99.90
5352;DHT22;2698;51.454;6.736;2023-01-13T00:32:25;9.90;99.90
5352;DHT22;2698;51.454;6.736;2023-01-13T00:34:52;9.90;99.90
5352;DHT22;2698;51.454;6.736;2023-01-13T00:37:21;9.90;99.90
5352;DHT22;2698;51.454;6.736;2023-01-13T00:39:49;9.90;99.90
5352;DHT22;2698;51.454;6.736;2023-01-13T00:42:16;9.90;99.90
5352;DHT22;2698;51.454;6.736;2023-01-13T00:45:00;9.90;99.90
5352;DHT22;2698;51.454;6.736;2023-01-13T00:47:27;9.90;99.90
5352;DHT22;2698;51.454;6.736;2023-01-13T00:49:54;9.90;99.90
5352;DHT22;2698;51.454;6.736;2023-01-13T00:52:22;9.90;99.90
5352;DHT22;2698;51.454;6.736;2023-01-13T00:54:49;9.80;99.90
5352;DHT22;2698;51.454;6.736;2023-01-13T00:57:15;10.00;99.90
5352;DHT22;2698;51.454;6.736;2023-01-13T00:59:43;9.80;99.90
5352;DHT22;2698;51.454;6.736;2023-01-13T01:02:10;9.80;99.90
5352;DHT22;2698;51.454;6.736;2023-01-13T01:04:37;9.80;99.90
5352;DHT22;2698;51.454;6.736;2023-01-13T01:07:03;9.80;99.90
5352;DHT22;2698;51.454;6.736;2023-01-13T01:09:32;9.70;99.90
5352;DHT22;2698;51.454;6.736;2023-01-13T01:11:59;9.70;99.90
5352;DHT22;2698;51.454;6.736;2023-01-13T01:14:26;9.70;99.90
5352;DHT22;2698;51.454;6.736;2023-01-13T01:16:53;9.70;99.90
5352;DHT22;2698;51.454;6.736;2023-01-13T01:19:19;9.60;99.90
5352;DHT22;2698;51.454;6.736;2023-01-13T01:21:46;9.60;99.90
5352;DHT22;2698;51.454;6.736;2023-01-13T01:24:13;9.50;99.90
5352;DHT22;2698;51.454;6.736;2023-01-13T01:26:42;9.40;99.90
5352;DHT22;2698;51.454;6.736;2023-01-13T01:29:11;9.40;99.90
5352;DHT22;2698;51.454;6.736;2023-01-13T01:31:40;9.40;99.90
5352;DHT22;2698;51.454;6.736;2023-01-13T01:34:07;9.40;99.90
5352;DHT22;2698;51.454;6.736;2023-01-13T01:36:33;9.40;99.90
5352;DHT22;2698;51.454;6.736;2023-01-13T01:39:01;9.50;99.90
5352;DHT22;2698;51.454;6.736;2023-01-13T01:41:30;9.50;99.90
5352;DHT22;2698;51.454;6.736;2023-01-13T01:44:00;9.50;99.90
5352;DHT22;2698;51.454;6.736;2023-01-13T01:46:29;9.40;99.90
5352;DHT22;2698;51.454;6.736;2023-01-13T01:49:01;9.40;99.90
5352;DHT22;2698;51.454;6.736;2023-01-13T01:51:32;9.30;99.90
5352;DHT22;2698;51.454;6.736;2023-01-13T01:54:00;9.30;99.90
5352;DHT22;2698;51.454;6.736;2023-01-13T01:56:28;9.20;99.90
5352;DHT22;2698;51.454;6.736;2023-01-13T01:58:55;9.20;99.90
5352;DHT22;2698;51.454;6.736;2023-01-13T02:01:23;9.20;99.90
5352;DHT22;2698;51.454;6.736;2023-01-13T02:03:55;9.10;99.90
5352;DHT22;2698;51.454;6.736;2023-01-13T02:06:24;9.10;99.90
5352;DHT22;2698;51.454;6.736;2023-01-13T02:08:51;9.00;99.90
5352;DHT22;2698;51.454;6.736;2023-01-13T02:11:29;9.00;99.90
5352;DHT22;2698;51.454;6.736;2023-01-13T02:14:13;8.90;99.90
5352;DHT22;2698;51.454;6.736;2023-01-13T02:16:50;8.90;99.90
5352;DHT22;2698;51.454;6.736;2023-01-13T02:19:36;8.90;99.90
5352;DHT22;2698;51.454;6.736;2023-01-13T02:22:17;8.90;99.90
5352;DHT22;2698;51.454;6.736;2023-01-13T02:28:02;9.00;99.90
5352;DHT22;2698;51.454;6.736;2023-01-13T02:30:43;9.10;99.90
5352;DHT22;2698;51.454;6.736;2023-01-13T02:33:49;9.10;99.90
5352;DHT22;2698;51.454;6.736;2023-01-13T02:36:25;9.10;99.90
5352;DHT22;2698;51.454;6.736;2023-01-13T02:38:56;9.00;99.90
5352;DHT22;2698;51.454;6.736;2023-01-13T02:41:27;9.00;99.90
5352;DHT22;2698;51.454;6.736;2023-01-13T02:44:15;8.90;99.90
5352;DHT22;2698;51.454;6.736;2023-01-13T02:46:50;8.80;99.90
5352;DHT22;2698;51.454;6.736;2023-01-13T02:49:24;8.80;99.90
5352;DHT22;2698;51.454;6.736;2023-01-13T02:51:58;8.80;99.90
5352;DHT22;2698;51.454;6.736;2023-01-13T02:54:27;8.70;99.90
5352;DHT22;2698;51.454;6.736;2023-01-13T02:56:57;8.70;99.90
5352;DHT22;2698;51.454;6.736;2023-01-13T02:59:25;8.60;99.90
5352;DHT22;2698;51.454;6.736;2023-01-13T03:01:55;8.50;99.90
5352;DHT22;2698;51.454;6.736;2023-01-13T03:04:51;8.50;99.90
5352;DHT22;2698;51.454;6.736;2023-01-13T03:07:51;8.40;99.90
5352;DHT22;2698;51.454;6.736;2023-01-13T03:10:55;8.50;99.90
5352;DHT22;2698;51.454;6.736;2023-01-13T03:13:38;8.40;99.90
5352;DHT22;2698;51.454;6.736;2023-01-13T03:16:15;8.40;99.90
5352;DHT22;2698;51.454;6.736;2023-01-13T03:18:48;8.40;99.90
5352;DHT22;2698;51.454;6.736;2023-01-13T03:21:20;8.30;99.90
5352;DHT22;2698;51.454;6.736;2023-01-13T03:23:54;8.30;99.90
5352;DHT22;2698;51.454;6.736;2023-01-13T03:26:36;8.40;99.90
5352;DHT22;2698;51.454;6.736;2023-01-13T03:29:09;8.40;99.90
5352;DHT22;2698;51.454;6.736;2023-01-13T03:31:45;8.20;99.90
5352;DHT22;2698;51.454;6.736;2023-01-13T03:34:16;8.20;99.90
5352;DHT22;2698;51.454;6.736;2023-01-13T03:36:46;8.20;99.90
5352;DHT22;2698;51.454;6.736;2023-01-13T03:39:19;8.20;99.90
5352;DHT22;2698;51.454;6.736;2023-01-13T03:41:50;8.20;99.90
5352;DHT22;2698;51.454;6.736;2023-01-13T03:44:20;8.20;99.90
5352;DHT22;2698;51.454;6.736;2023-01-13T03:46:51;8.30;99.90
5352;DHT22;2698;51.454;6.736;2023-01-13T03:49:24;8.40;99.90
5352;DHT22;2698;51.454;6.736;2023-01-13T03:51:55;8.30;99.90
5352;DHT22;2698;51.454;6.736;2023-01-13T03:54:27;8.30;99.90
5352;DHT22;2698;51.454;6.736;2023-01-13T03:56:59;8.40;99.90
5352;DHT22;2698;51.454;6.736;2023-01-13T03:59:30;8.20;99.90
5352;DHT22;2698;51.454;6.736;2023-01-13T04:02:01;8.20;99.90
5352;DHT22;2698;51.454;6.736;2023-01-13T04:04:32;8.20;99.90
5352;DHT22;2698;51.454;6.736;2023-01-13T04:07:08;8.20;99.90
5352;DHT22;2698;51.454;6.736;2023-01-13T04:09:47;8.20;99.90
5352;DHT22;2698;51.454;6.736;2023-01-13T04:12:19;8.20;99.90
5352;DHT22;2698;51.454;6.736;2023-01-13T04:14:48;8.20;99.90
5352;DHT22;2698;51.454;6.736;2023-01-13T04:17:16;8.20;99.90
5352;DHT22;2698;51.454;6.736;2023-01-13T04:19:45;8.20;99.90
5352;DHT22;2698;51.454;6.736;2023-01-13T04:22:11;8.20;99.90
5352;DHT22;2698;51.454;6.736;2023-01-13T04:24:38;8.20;99.90
5352;DHT22;2698;51.454;6.736;2023-01-13T04:27:05;8.30;99.90
5352;DHT22;2698;51.454;6.736;2023-01-13T04:29:32;8.30;99.90
5352;DHT22;2698;51.454;6.736;2023-01-13T04:31:58;8.30;99.90
5352;DHT22;2698;51.454;6.736;2023-01-13T04:34:25;8.30;99.90
5352;DHT22;2698;51.454;6.736;2023-01-13T04:36:53;8.40;99.90
5352;DHT22;2698;51.454;6.736;2023-01-13T04:39:20;8.40;99.90
5352;DHT22;2698;51.454;6.736;2023-01-13T04:41:47;8.50;99.90
5352;DHT22;2698;51.454;6.736;2023-01-13T04:44:27;8.50;99.90
5352;DHT22;2698;51.454;6.736;2023-01-13T04:46:57;8.50;99.90
5352;DHT22;2698;51.454;6.736;2023-01-13T04:49:23;8.60;99.90
5352;DHT22;2698;51.454;6.736;2023-01-13T04:51:50;8.60;99.90
5352;DHT22;2698;51.454;6.736;2023-01-13T04:54:19;8.60;99.90
5352;DHT22;2698;51.454;6.736;2023-01-13T04:56:45;8.70;99.90
5352;DHT22;2698;51.454;6.736;2023-01-13T04:59:13;8.70;99.90
5352;DHT22;2698;51.454;6.736;2023-01-13T05:01:40;8.60;99.90
5352;DHT22;2698;51.454;6.736;2023-01-13T05:04:07;8.60;99.90
5352;DHT22;2698;51.454;6.736;2023-01-13T05:06:34;8.60;99.90
5352;DHT22;2698;51.454;6.736;2023-01-13T05:09:01;8.60;99.90
5352;DHT22;2698;51.454;6.736;2023-01-13T05:11:29;8.60;99.90
5352;DHT22;2698;51.454;6.736;2023-01-13T05:14:13;8.50;99.90
5352;DHT22;2698;51.454;6.736;2023-01-13T05:16:58;8.60;99.90
5352;DHT22;2698;51.454;6.736;2023-01-13T05:19:28;8.60;99.90
5352;DHT22;2698;51.454;6.736;2023-01-13T05:21:55;8.60;99.90
5352;DHT22;2698;51.454;6.736;2023-01-13T05:24:40;8.60;99.90
5352;DHT22;2698;51.454;6.736;2023-01-13T05:27:26;8.60;99.90
5352;DHT22;2698;51.454;6.736;2023-01-13T05:29:53;8.60;99.90
5352;DHT22;2698;51.454;6.736;2023-01-13T05:32:20;8.60;99.90
5352;DHT22;2698;51.454;6.736;2023-01-13T05:34:47;8.60;99.90
5352;DHT22;2698;51.454;6.736;2023-01-13T05:37:14;8.60;99.90
5352;DHT22;2698;51.454;6.736;2023-01-13T05:39:41;8.60;99.90
5352;DHT22;2698;51.454;6.736;2023-01-13T05:42:27;8.50;99.90
5352;DHT22;2698;51.454;6.736;2023-01-13T05:45:11;8.40;99.90
5352;DHT22;2698;51.454;6.736;2023-01-13T05:47:38;8.50;99.90
5352;DHT22;2698;51.454;6.736;2023-01-13T05:50:05;8.50;99.90
5352;DHT22;2698;51.454;6.736;2023-01-13T05:52:32;8.50;99.90
5352;DHT22;2698;51.454;6.736;2023-01-13T05:54:59;8.60;99.90
5352;DHT22;2698;51.454;6.736;2023-01-13T05:57:27;8.60;99.90
5352;DHT22;2698;51.454;6.736;2023-01-13T05:59:54;8.60;99.90
5352;DHT22;2698;51.454;6.736;2023-01-13T06:02:21;8.60;99.90
5352;DHT22;2698;51.454;6.736;2023-01-13T06:04:47;8.50;99.90
5352;DHT22;2698;51.454;6.736;2023-01-13T06:07:14;8.50;99.90
5352;DHT22;2698;51.454;6.736;2023-01-13T06:09:41;8.50;99.90
5352;DHT22;2698;51.454;6.736;2023-01-13T06:12:10;8.30;99.90
5352;DHT22;2698;51.454;6.736;2023-01-13T06:14:38;8.30;99.90
5352;DHT22;2698;51.454;6.736;2023-01-13T06:17:06;8.40;99.90
5352;DHT22;2698;51.454;6.736;2023-01-13T06:19:33;8.20;99.90
5352;DHT22;2698;51.454;6.736;2023-01-13T06:22:05;8.20;99.90
5352;DHT22;2698;51.454;6.736;2023-01-13T06:24:34;8.00;99.90
5352;DHT22;2698;51.454;6.736;2023-01-13T06:27:03;8.10;99.90
5352;DHT22;2698;51.454;6.736;2023-01-13T06:29:30;8.00;99.90
5352;DHT22;2698;51.454;6.736;2023-01-13T06:32:01;8.00;99.90
5352;DHT22;2698;51.454;6.736;2023-01-13T06:34:28;8.00;99.90
5352;DHT22;2698;51.454;6.736;2023-01-13T06:36:55;7.90;99.90
5352;DHT22;2698;51.454;6.736;2023-01-13T06:39:24;7.90;99.90
5352;DHT22;2698;51.454;6.736;2023-01-13T06:41:53;8.00;99.90
5352;DHT22;2698;51.454;6.736;2023-01-13T06:44:38;7.90;99.90
5352;DHT22;2698;51.454;6.736;2023-01-13T06:47:07;7.90;99.90
5352;DHT22;2698;51.454;6.736;2023-01-13T06:49:34;7.80;99.90
5352;DHT22;2698;51.454;6.736;2023-01-13T06:52:00;7.90;99.90
5352;DHT22;2698;51.454;6.736;2023-01-13T06:54:27;7.80;99.90
5352;DHT22;2698;51.454;6.736;2023-01-13T06:56:54;7.80;99.90
5352;DHT22;2698;51.454;6.736;2023-01-13T06:59:21;7.80;99.90
5352;DHT22;2698;51.454;6.736;2023-01-13T07:01:48;7.80;99.90
5352;DHT22;2698;51.454;6.736;2023-01-13T07:04:16;7.70;99.90
5352;DHT22;2698;51.454;6.736;2023-01-13T07:06:43;7.80;99.90
5352;DHT22;2698;51.454;6.736;2023-01-13T07:09:10;7.80;99.90
5352;DHT22;2698;51.454;6.736;2023-01-13T07:11:37;7.90;99.90
5352;DHT22;2698;51.454;6.736;2023-01-13T07:14:03;7.70;99.90
5352;DHT22;2698;51.454;6.736;2023-01-13T07:16:48;7.70;99.90
5352;DHT22;2698;51.454;6.736;2023-01-13T07:19:16;7.60;99.90
5352;DHT22;2698;51.454;6.736;2023-01-13T07:21:47;7.70;99.90
5352;DHT22;2698;51.454;6.736;2023-01-13T07:24:14;7.70;99.90
5352;DHT22;2698;51.454;6.736;2023-01-13T07:26:41;7.80;99.90
5352;DHT22;2698;51.454;6.736;2023-01-13T07:29:08;8.00;99.90
5352;DHT22;2698;51.454;6.736;2023-01-13T07:31:34;7.90;99.90
5352;DHT22;2698;51.454;6.736;2023-01-13T07:34:01;7.90;99.90
5352;DHT22;2698;51.454;6.736;2023-01-13T07:36:29;8.10;99.90
5352;DHT22;2698;51.454;6.736;2023-01-13T07:38:56;8.00;99.90
5352;DHT22;2698;51.454;6.736;2023-01-13T07:41:23;8.00;99.90
5352;DHT22;2698;51.454;6.736;2023-01-13T07:44:06;8.10;99.90
5352;DHT22;2698;51.454;6.736;2023-01-13T07:46:35;8.00;99.90
5352;DHT22;2698;51.454;6.736;2023-01-13T07:49:03;8.00;99.90
5352;DHT22;2698;51.454;6.736;2023-01-13T07:51:34;8.00;99.90
5352;DHT22;2698;51.454;6.736;2023-01-13T07:54:01;8.10;99.90
5352;DHT22;2698;51.454;6.736;2023-01-13T07:56:28;8.10;99.90
5352;DHT22;2698;51.454;6.736;2023-01-13T07:58:55;8.10;99.90
5352;DHT22;2698;51.454;6.736;2023-01-13T08:01:21;8.20;99.90
5352;DHT22;2698;51.454;6.736;2023-01-13T08:03:48;8.30;99.90
5352;DHT22;2698;51.454;6.736;2023-01-13T08:06:15;8.30;99.90
5352;DHT22;2698;51.454;6.736;2023-01-13T08:08:43;8.30;99.90
5352;DHT22;2698;51.454;6.736;2023-01-13T08:11:10;8.30;99.90
5352;DHT22;2698;51.454;6.736;2023-01-13T08:13:36;8.40;99.90
5352;DHT22;2698;51.454;6.736;2023-01-13T08:16:05;8.40;99.90
5352;DHT22;2698;51.454;6.736;2023-01-13T08:18:32;8.40;99.90
5352;DHT22;2698;51.454;6.736;2023-01-13T08:21:02;8.50;99.90
5352;DHT22;2698;51.454;6.736;2023-01-13T08:23:29;8.50;99.90
5352;DHT22;2698;51.454;6.736;2023-01-13T08:26:00;8.50;99.90
5352;DHT22;2698;51.454;6.736;2023-01-13T08:28:27;8.50;99.90
5352;DHT22;2698;51.454;6.736;2023-01-13T08:30:58;8.50;99.90
5352;DHT22;2698;51.454;6.736;2023-01-13T08:33:25;8.50;99.90
5352;DHT22;2698;51.454;6.736;2023-01-13T08:35:52;8.50;99.90
5352;DHT22;2698;51.454;6.736;2023-01-13T08:38:19;8.50;99.90
5352;DHT22;2698;51.454;6.736;2023-01-13T08:40:45;8.50;99.90
5352;DHT22;2698;51.454;6.736;2023-01-13T08:43:14;8.50;99.90
5352;DHT22;2698;51.454;6.736;2023-01-13T08:45:40;8.60;99.90
5352;DHT22;2698;51.454;6.736;2023-01-13T08:48:08;8.70;99.90
5352;DHT22;2698;51.454;6.736;2023-01-13T08:50:35;8.80;99.90
5352;DHT22;2698;51.454;6.736;2023-01-13T08:53:01;8.60;99.90
5352;DHT22;2698;51.454;6.736;2023-01-13T08:55:28;8.60;99.90
5352;DHT22;2698;51.454;6.736;2023-01-13T08:57:55;8.70;99.90
5352;DHT22;2698;51.454;6.736;2023-01-13T09:00:23;8.70;99.90
5352;DHT22;2698;51.454;6.736;2023-01-13T09:02:50;8.60;99.90
5352;DHT22;2698;51.454;6.736;2023-01-13T09:05:17;8.60;99.90
5352;DHT22;2698;51.454;6.736;2023-01-13T09:07:44;8.60;99.90
5352;DHT22;2698;51.454;6.736;2023-01-13T09:10:10;8.50;99.90
5352;DHT22;2698;51.454;6.736;2023-01-13T09:12:37;8.60;99.90
5352;DHT22;2698;51.454;6.736;2023-01-13T09:15:23;8.60;99.90
5352;DHT22;2698;51.454;6.736;2023-01-13T09:17:49;8.50;99.90
5352;DHT22;2698;51.454;6.736;2023-01-13T09:20:17;8.70;99.90
5352;DHT22;2698;51.454;6.736;2023-01-13T09:22:43;8.60;99.90
5352;DHT22;2698;51.454;6.736;2023-01-13T09:25:10;8.60;99.90
5352;DHT22;2698;51.454;6.736;2023-01-13T09:27:38;8.60;99.90
5352;DHT22;2698;51.454;6.736;2023-01-13T09:30:06;8.60;99.90
5352;DHT22;2698;51.454;6.736;2023-01-13T09:32:34;8.60;99.90
5352;DHT22;2698;51.454;6.736;2023-01-13T09:35:03;8.60;99.90
5352;DHT22;2698;51.454;6.736;2023-01-13T09:37:30;8.60;99.90
5352;DHT22;2698;51.454;6.736;2023-01-13T09:39:58;8.60;99.90
5352;DHT22;2698;51.454;6.736;2023-01-13T09:42:31;8.70;99.90
5352;DHT22;2698;51.454;6.736;2023-01-13T09:45:19;8.70;99.90
5352;DHT22;2698;51.454;6.736;2023-01-13T09:47:52;8.70;99.90
5352;DHT22;2698;51.454;6.736;2023-01-13T09:50:27;8.70;99.90
5352;DHT22;2698;51.454;6.736;2023-01-13T09:52:56;8.70;99.90
5352;DHT22;2698;51.454;6.736;2023-01-13T09:55:30;8.80;99.90
5352;DHT22;2698;51.454;6.736;2023-01-13T09:58:00;8.80;99.90
5352;DHT22;2698;51.454;6.736;2023-01-13T10:00:33;8.90;99.90
5352;DHT22;2698;51.454;6.736;2023-01-13T10:03:18;8.90;99.90
5352;DHT22;2698;51.454;6.736;2023-01-13T10:05:49;9.00;99.90
5352;DHT22;2698;51.454;6.736;2023-01-13T10:08:22;9.10;99.90
5352;DHT22;2698;51.454;6.736;2023-01-13T10:10:53;9.10;99.90
5352;DHT22;2698;51.454;6.736;2023-01-13T10:13:22;9.20;99.90
5352;DHT22;2698;51.454;6.736;2023-01-13T10:15:55;9.20;99.90
5352;DHT22;2698;51.454;6.736;2023-01-13T10:18:30;9.20;99.90
5352;DHT22;2698;51.454;6.736;2023-01-13T10:21:05;9.20;99.90
5352;DHT22;2698;51.454;6.736;2023-01-13T10:23:54;9.30;99.90
5352;DHT22;2698;51.454;6.736;2023-01-13T10:26:33;9.30;99.90
5352;DHT22;2698;51.454;6.736;2023-01-13T10:29:17;9.20;99.90
5352;DHT22;2698;51.454;6.736;2023-01-13T10:31:45;9.40;99.90
5352;DHT22;2698;51.454;6.736;2023-01-13T10:34:13;9.50;99.90
5352;DHT22;2698;51.454;6.736;2023-01-13T10:36:53;9.70;99.90
5352;DHT22;2698;51.454;6.736;2023-01-13T10:39:24;9.90;99.90
5352;DHT22;2698;51.454;6.736;2023-01-13T10:42:00;9.90;99.90
5352;DHT22;2698;51.454;6.736;2023-01-13T10:44:27;9.90;99.90
5352;DHT22;2698;51.454;6.736;2023-01-13T10:46:55;9.90;99.90
5352;DHT22;2698;51.454;6.736;2023-01-13T10:49:28;9.90;99.90
5352;DHT22;2698;51.454;6.736;2023-01-13T10:51:57;10.00;99.90
5352;DHT22;2698;51.454;6.736;2023-01-13T10:54:25;10.10;99.90
5352;DHT22;2698;51.454;6.736;2023-01-13T10:57:14;10.10;99.90
5352;DHT22;2698;51.454;6.736;2023-01-13T10:59:41;10.10;99.90
5352;DHT22;2698;51.454;6.736;2023-01-13T11:02:18;10.00;99.90
5352;DHT22;2698;51.454;6.736;2023-01-13T11:07:40;9.90;99.90
5352;DHT22;2698;51.454;6.736;2023-01-13T11:10:18;9.80;99.90
5352;DHT22;2698;51.454;6.736;2023-01-13T11:12:55;9.80;99.90
5352;DHT22;2698;51.454;6.736;2023-01-13T11:15:32;9.80;99.90
5352;DHT22;2698;51.454;6.736;2023-01-13T11:18:09;9.70;99.90
5352;DHT22;2698;51.454;6.736;2023-01-13T11:20:42;9.80;99.90
5352;DHT22;2698;51.454;6.736;2023-01-13T11:23:13;9.70;99.90
5352;DHT22;2698;51.454;6.736;2023-01-13T11:25:44;9.50;99.90
5352;DHT22;2698;51.454;6.736;2023-01-13T11:28:26;9.50;99.90
5352;DHT22;2698;51.454;6.736;2023-01-13T11:31:03;9.60;99.90
5352;DHT22;2698;51.454;6.736;2023-01-13T11:33:39;9.70;99.90
5352;DHT22;2698;51.454;6.736;2023-01-13T11:36:12;9.80;99.90
5352;DHT22;2698;51.454;6.736;2023-01-13T11:38:45;9.80;99.90
5352;DHT22;2698;51.454;6.736;2023-01-13T11:41:23;9.90;99.90
5352;DHT22;2698;51.454;6.736;2023-01-13T11:43:56;9.80;99.90
5352;DHT22;2698;51.454;6.736;2023-01-13T11:46:26;9.70;99.90
5352;DHT22;2698;51.454;6.736;2023-01-13T11:48:54;9.60;99.90
5352;DHT22;2698;51.454;6.736;2023-01-13T11:51:29;9.50;99.90
5352;DHT22;2698;51.454;6.736;2023-01-13T11:54:20;9.40;99.90
5352;DHT22;2698;51.454;6.736;2023-01-13T11:57:23;9.30;99.90
5352;DHT22;2698;51.454;6.736;2023-01-13T12:00:20;9.10;99.90
5352;DHT22;2698;51.454;6.736;2023-01-13T12:02:56;9.10;99.90
5352;DHT22;2698;51.454;6.736;2023-01-13T12:05:35;9.00;99.90
5352;DHT22;2698;51.454;6.736;2023-01-13T12:08:22;8.90;99.90
5352;DHT22;2698;51.454;6.736;2023-01-13T12:10:58;8.80;99.90
5352;DHT22;2698;51.454;6.736;2023-01-13T12:13:34;8.80;99.90
5352;DHT22;2698;51.454;6.736;2023-01-13T12:16:21;8.80;99.90
5352;DHT22;2698;51.454;6.736;2023-01-13T12:19:18;8.80;99.90
5352;DHT22;2698;51.454;6.736;2023-01-13T12:22:08;8.90;99.90
5352;DHT22;2698;51.454;6.736;2023-01-13T12:24:43;8.90;99.90
5352;DHT22;2698;51.454;6.736;2023-01-13T12:27:16;9.00;99.90
5352;DHT22;2698;51.454;6.736;2023-01-13T12:29:44;9.00;99.90
5352;DHT22;2698;51.454;6.736;2023-01-13T12:32:14;9.00;99.90
5352;DHT22;2698;51.454;6.736;2023-01-13T12:35:03;9.00;99.90
5352;DHT22;2698;51.454;6.736;2023-01-13T12:37:36;9.00;99.90
5352;DHT22;2698;51.454;6.736;2023-01-13T12:40:35;9.00;99.90
5352;DHT22;2698;51.454;6.736;2023-01-13T12:43:14;9.00;99.90
5352;DHT22;2698;51.454;6.736;2023-01-13T12:46:32;9.00;99.90
5352;DHT22;2698;51.454;6.736;2023-01-13T12:49:06;9.00;99.90
5352;DHT22;2698;51.454;6.736;2023-01-13T12:54:59;8.90;99.90
5352;DHT22;2698;51.454;6.736;2023-01-13T12:57:28;8.80;99.90
5352;DHT22;2698;51.454;6.736;2023-01-13T13:00:15;8.70;99.90
5352;DHT22;2698;51.454;6.736;2023-01-13T13:05:55;8.70;99.90
5352;DHT22;2698;51.454;6.736;2023-01-13T13:08:34;8.80;99.90
5352;DHT22;2698;51.454;6.736;2023-01-13T13:15:16;8.90;99.90
5352;DHT22;2698;51.454;6.736;2023-01-13T13:18:00;8.90;99.90
5352;DHT22;2698;51.454;6.736;2023-01-13T13:20:59;8.90;99.90
5352;DHT22;2698;51.454;6.736;2023-01-13T13:23:56;8.90;99.90
5352;DHT22;2698;51.454;6.736;2023-01-13T13:26:45;9.00;99.90
5352;DHT22;2698;51.454;6.736;2023-01-13T13:29:29;9.00;99.90
5352;DHT22;2698;51.454;6.736;2023-01-13T13:32:14;9.00;99.90
5352;DHT22;2698;51.454;6.736;2023-01-13T13:34:47;8.80;99.90
5352;DHT22;2698;51.454;6.736;2023-01-13T13:37:31;9.00;99.90
5352;DHT22;2698;51.454;6.736;2023-01-13T13:40:20;9.00;99.90
5352;DHT22;2698;51.454;6.736;2023-01-13T13:43:10;9.00;99.90
5352;DHT22;2698;51.454;6.736;2023-01-13T13:45:56;9.00;99.90
5352;DHT22;2698;51.454;6.736;2023-01-13T13:48:51;9.00;99.90
5352;DHT22;2698;51.454;6.736;2023-01-13T13:51:26;8.90;99.90
5352;DHT22;2698;51.454;6.736;2023-01-13T13:53:54;8.90;99.90
5352;DHT22;2698;51.454;6.736;2023-01-13T13:56:25;8.80;99.90
5352;DHT22;2698;51.454;6.736;2023-01-13T13:58:53;8.90;99.90
5352;DHT22;2698;51.454;6.736;2023-01-13T14:01:23;8.80;99.90
5352;DHT22;2698;51.454;6.736;2023-01-13T14:04:05;8.70;99.90
5352;DHT22;2698;51.454;6.736;2023-01-13T14:06:32;8.70;99.90
5352;DHT22;2698;51.454;6.736;2023-01-13T14:08:59;8.60;99.90
5352;DHT22;2698;51.454;6.736;2023-01-13T14:11:29;8.60;99.90
5352;DHT22;2698;51.454;6.736;2023-01-13T14:14:04;8.80;99.90
5352;DHT22;2698;51.454;6.736;2023-01-13T14:16:31;8.60;99.90
5352;DHT22;2698;51.454;6.736;2023-01-13T14:18:59;8.60;99.90
5352;DHT22;2698;51.454;6.736;2023-01-13T14:21:28;8.60;99.90
5352;DHT22;2698;51.454;6.736;2023-01-13T14:23:57;8.70;99.90
5352;DHT22;2698;51.454;6.736;2023-01-13T14:26:28;8.60;99.90
5352;DHT22;2698;51.454;6.736;2023-01-13T14:28:56;8.60;99.90
5352;DHT22;2698;51.454;6.736;2023-01-13T14:31:23;8.70;99.90
5352;DHT22;2698;51.454;6.736;2023-01-13T14:33:52;8.60;99.90
5352;DHT22;2698;51.454;6.736;2023-01-13T14:36:21;8.40;99.90
5352;DHT22;2698;51.454;6.736;2023-01-13T14:39:23;8.50;99.90
5352;DHT22;2698;51.454;6.736;2023-01-13T14:41:50;8.50;99.90
5352;DHT22;2698;51.454;6.736;2023-01-13T14:44:22;8.50;99.90
5352;DHT22;2698;51.454;6.736;2023-01-13T14:46:50;8.50;99.90
5352;DHT22;2698;51.454;6.736;2023-01-13T14:49:24;8.40;99.90
5352;DHT22;2698;51.454;6.736;2023-01-13T14:51:52;8.40;99.90
5352;DHT22;2698;51.454;6.736;2023-01-13T14:54:48;8.30;99.90
5352;DHT22;2698;51.454;6.736;2023-01-13T14:57:22;8.30;99.90
5352;DHT22;2698;51.454;6.736;2023-01-13T14:59:58;8.30;99.90
5352;DHT22;2698;51.454;6.736;2023-01-13T15:02:37;8.30;99.90
5352;DHT22;2698;51.454;6.736;2023-01-13T15:05:39;8.40;99.90
5352;DHT22;2698;51.454;6.736;2023-01-13T15:08:35;8.30;99.90
5352;DHT22;2698;51.454;6.736;2023-01-13T15:11:06;8.30;99.90
5352;DHT22;2698;51.454;6.736;2023-01-13T15:13:38;8.30;99.90
5352;DHT22;2698;51.454;6.736;2023-01-13T15:16:12;8.30;99.90
5352;DHT22;2698;51.454;6.736;2023-01-13T15:18:39;8.40;99.90
5352;DHT22;2698;51.454;6.736;2023-01-13T15:21:06;8.40;99.90
5352;DHT22;2698;51.454;6.736;2023-01-13T15:23:34;8.40;99.90
5352;DHT22;2698;51.454;6.736;2023-01-13T15:26:01;8.50;99.90
5352;DHT22;2698;51.454;6.736;2023-01-13T15:28:30;8.60;99.90
5352;DHT22;2698;51.454;6.736;2023-01-13T15:30:57;8.50;99.90
5352;DHT22;2698;51.454;6.736;2023-01-13T15:33:26;8.50;99.90
5352;DHT22;2698;51.454;6.736;2023-01-13T15:35:53;8.60;99.90
5352;DHT22;2698;51.454;6.736;2023-01-13T15:38:21;8.60;99.90
5352;DHT22;2698;51.454;6.736;2023-01-13T15:40:49;8.60;99.90
5352;DHT22;2698;51.454;6.736;2023-01-13T15:43:18;8.40;99.90
5352;DHT22;2698;51.454;6.736;2023-01-13T15:46:10;8.60;99.90
5352;DHT22;2698;51.454;6.736;2023-01-13T15:49:00;8.60;99.90
5352;DHT22;2698;51.454;6.736;2023-01-13T15:51:27;8.60;99.90
5352;DHT22;2698;51.454;6.736;2023-01-13T15:53:54;8.60;99.90
5352;DHT22;2698;51.454;6.736;2023-01-13T15:56:23;8.60;99.90
5352;DHT22;2698;51.454;6.736;2023-01-13T15:58:51;8.60;99.90
5352;DHT22;2698;51.454;6.736;2023-01-13T16:01:21;8.60;99.90
5352;DHT22;2698;51.454;6.736;2023-01-13T16:03:48;8.50;99.90
5352;DHT22;2698;51.454;6.736;2023-01-13T16:06:19;8.50;99.90
5352;DHT22;2698;51.454;6.736;2023-01-13T16:08:46;8.60;99.90
5352;DHT22;2698;51.454;6.736;2023-01-13T16:11:13;8.50;99.90
5352;DHT22;2698;51.454;6.736;2023-01-13T16:13:40;8.50;99.90
5352;DHT22;2698;51.454;6.736;2023-01-13T16:16:17;8.50;99.90
5352;DHT22;2698;51.454;6.736;2023-01-13T16:18:46;8.50;99.90
5352;DHT22;2698;51.454;6.736;2023-01-13T16:21:13;8.50;99.90
5352;DHT22;2698;51.454;6.736;2023-01-13T16:23:40;8.50;99.90
5352;DHT22;2698;51.454;6.736;2023-01-13T16:26:16;8.60;99.90
5352;DHT22;2698;51.454;6.736;2023-01-13T16:28:43;8.60;99.90
5352;DHT22;2698;51.454;6.736;2023-01-13T16:31:23;8.60;99.90
5352;DHT22;2698;51.454;6.736;2023-01-13T16:33:52;8.70;99.90
5352;DHT22;2698;51.454;6.736;2023-01-13T16:36:20;8.60;99.90
5352;DHT22;2698;51.454;6.736;2023-01-13T16:38:48;8.60;99.90
5352;DHT22;2698;51.454;6.736;2023-01-13T16:41:15;8.60;99.90
5352;DHT22;2698;51.454;6.736;2023-01-13T16:43:42;8.60;99.90
5352;DHT22;2698;51.454;6.736;2023-01-13T16:46:18;8.60;99.90
5352;DHT22;2698;51.454;6.736;2023-01-13T16:48:46;8.60;99.90
5352;DHT22;2698;51.454;6.736;2023-01-13T16:51:14;8.60;99.90
5352;DHT22;2698;51.454;6.736;2023-01-13T16:53:41;8.60;99.90
5352;DHT22;2698;51.454;6.736;2023-01-13T16:56:18;8.60;99.90
5352;DHT22;2698;51.454;6.736;2023-01-13T16:58:46;8.70;99.90
5352;DHT22;2698;51.454;6.736;2023-01-13T17:01:19;8.70;99.90
5352;DHT22;2698;51.454;6.736;2023-01-13T17:03:46;8.50;99.90
5352;DHT22;2698;51.454;6.736;2023-01-13T17:06:18;8.70;99.90